Time;durP1;ratioP1;P1;durP2;ratioP2;P2;SDS_P1;SDS_P2;PMS_P1;PMS_P2;Temp;Humidity;BMP_temperature;BMP_pressure;BME280_temperature;BME280_humidity;BME280_pressure;Samples;Min_cycle;Max_cycle;Signal;HPM_P1;HPM_P2
2022/04/19 00:00:48;;;;;;;5.30;3.40;;;16.40;59.90;;;;;;5097287;28;20035;-79
2022/04/19 00:03:17;;;;;;;6.05;3.30;;;16.40;59.90;;;;;;5076566;28;20389;-79
2022/04/19 00:05:43;;;;;;;4.60;3.33;;;16.30;59.90;;;;;;5084600;28;20084;-78
2022/04/19 00:08:10;;;;;;;4.32;3.40;;;16.20;60.00;;;;;;5079504;28;20483;-78
2022/04/19 00:10:36;;;;;;;4.72;3.22;;;16.30;60.10;;;;;;5070677;28;20092;-79
2022/04/19 00:13:04;;;;;;;4.60;3.50;;;16.20;60.00;;;;;;5085376;28;20520;-78
2022/04/19 00:15:32;;;;;;;4.00;2.97;;;16.20;60.20;;;;;;5086677;28;20032;-78
2022/04/19 00:18:03;;;;;;;4.38;3.20;;;16.10;60.20;;;;;;5055645;28;20105;-78
2022/04/19 00:20:30;;;;;;;5.13;3.22;;;16.10;60.10;;;;;;5092225;28;20038;-79
2022/04/19 00:22:57;;;;;;;4.82;3.30;;;16.10;60.10;;;;;;5054605;28;20055;-78
2022/04/19 00:25:24;;;;;;;5.10;3.65;;;16.10;60.20;;;;;;5075836;28;20123;-78
2022/04/19 00:27:50;;;;;;;5.00;3.63;;;16.00;60.20;;;;;;5060048;28;20025;-78
2022/04/19 00:30:16;;;;;;;5.05;3.30;;;16.00;60.20;;;;;;5085748;28;20036;-78
2022/04/19 00:32:42;;;;;;;5.00;3.60;;;16.00;60.30;;;;;;5066756;28;20027;-78
2022/04/19 00:35:10;;;;;;;4.13;3.15;;;15.90;60.20;;;;;;5098554;28;20027;-78
2022/04/19 00:37:37;;;;;;;5.55;3.60;;;15.90;60.40;;;;;;5095288;28;20622;-78
2022/04/19 00:40:04;;;;;;;5.45;3.45;;;15.80;60.20;;;;;;5101112;28;20024;-77
2022/04/19 00:42:32;;;;;;;4.65;3.65;;;15.80;60.30;;;;;;5071154;28;20020;-80
2022/04/19 00:44:59;;;;;;;4.97;3.65;;;15.80;60.30;;;;;;5093373;28;20099;-78
2022/04/19 00:47:25;;;;;;;5.03;3.38;;;15.80;60.40;;;;;;5093779;28;20023;-79
2022/04/19 00:49:52;;;;;;;4.45;3.40;;;15.70;60.40;;;;;;5091875;28;20063;-78
2022/04/19 00:52:19;;;;;;;4.47;3.28;;;15.70;60.40;;;;;;5076451;28;20027;-78
2022/04/19 00:54:48;;;;;;;4.85;3.28;;;15.70;60.50;;;;;;5075560;28;20472;-79
2022/04/19 00:57:14;;;;;;;4.60;3.30;;;15.60;60.50;;;;;;5091001;28;20032;-79
2022/04/19 00:59:46;;;;;;;4.85;3.47;;;15.60;60.50;;;;;;5090918;28;20028;-78
2022/04/19 01:02:12;;;;;;;5.28;3.92;;;15.60;60.50;;;;;;5096607;28;20460;-79
2022/04/19 01:04:38;;;;;;;5.25;4.07;;;15.50;60.50;;;;;;5090397;28;20017;-79
2022/04/19 01:07:08;;;;;;;5.38;3.58;;;15.50;60.50;;;;;;5084227;28;20071;-78
2022/04/19 01:09:35;;;;;;;5.03;3.50;;;15.50;60.60;;;;;;5096317;28;20102;-78
2022/04/19 01:14:48;;;;;;;6.22;3.70;;;15.40;60.60;;;;;;5093508;28;20047;-78
2022/04/19 01:17:15;;;;;;;4.53;3.60;;;15.40;60.60;;;;;;5072194;28;20047;-78
2022/04/19 01:19:44;;;;;;;6.43;4.00;;;15.30;60.60;;;;;;5054574;28;20089;-79
2022/04/19 01:22:15;;;;;;;4.72;3.45;;;15.30;60.70;;;;;;5077749;28;20064;-78
2022/04/19 01:24:44;;;;;;;5.50;3.50;;;15.30;60.80;;;;;;5065699;28;20025;-78
2022/04/19 01:27:14;;;;;;;4.63;3.33;;;15.20;60.70;;;;;;5067825;28;20452;-77
2022/04/19 01:29:44;;;;;;;5.05;3.53;;;15.20;60.80;;;;;;5088651;28;20067;-78
2022/04/19 01:32:11;;;;;;;4.80;3.50;;;15.20;60.80;;;;;;5078915;28;20032;-78
2022/04/19 01:34:37;;;;;;;5.72;3.63;;;15.10;60.70;;;;;;5072307;28;20024;-79
2022/04/19 01:37:09;;;;;;;5.28;3.55;;;15.10;60.80;;;;;;5056336;28;20025;-78
2022/04/19 01:42:19;;;;;;;5.95;4.07;;;15.00;60.70;;;;;;5078848;28;20040;-78
2022/04/19 01:44:51;;;;;;;5.35;3.55;;;15.00;60.80;;;;;;5078299;28;20081;-79
2022/04/19 01:47:17;;;;;;;5.85;3.78;;;15.00;60.80;;;;;;5083167;28;20044;-78
2022/04/19 01:49:47;;;;;;;5.20;3.83;;;14.90;60.80;;;;;;5058791;28;20119;-79
2022/04/19 01:52:13;;;;;;;5.43;3.75;;;14.90;60.90;;;;;;5073304;28;20033;-77
2022/04/19 01:54:40;;;;;;;5.53;3.90;;;14.90;60.90;;;;;;5072024;28;20032;-78
2022/04/19 01:57:07;;;;;;;5.22;3.92;;;14.90;60.90;;;;;;5064263;28;20071;-78
2022/04/19 01:59:45;;;;;;;4.85;3.75;;;14.80;60.90;;;;;;5074243;28;20127;-78
2022/04/19 02:02:14;;;;;;;4.25;3.17;;;14.80;60.90;;;;;;5087349;28;20032;-79
2022/04/19 02:04:40;;;;;;;5.50;3.80;;;14.70;60.90;;;;;;5095682;28;20024;-79
2022/04/19 02:07:06;;;;;;;5.10;3.70;;;14.70;60.90;;;;;;5087236;28;20028;-79
2022/04/19 02:09:33;;;;;;;4.95;3.42;;;14.70;61.00;;;;;;5071529;28;20404;-77
2022/04/19 02:12:00;;;;;;;4.78;3.60;;;14.70;61.00;;;;;;5076421;28;20055;-78
2022/04/19 02:14:50;;;;;;;4.63;3.40;;;14.70;61.10;;;;;;5065837;28;20396;-79
2022/04/19 02:17:23;;;;;;;4.53;3.42;;;14.60;61.00;;;;;;5076892;28;20067;-79
2022/04/19 02:19:59;;;;;;;5.15;3.38;;;14.60;61.10;;;;;;5099277;28;20020;-78
2022/04/19 02:22:26;;;;;;;5.07;3.67;;;14.50;61.10;;;;;;5094111;28;20040;-79
2022/04/19 02:24:53;;;;;;;5.15;3.47;;;14.50;61.10;;;;;;5071421;28;20032;-78
2022/04/19 02:27:19;;;;;;;5.40;3.85;;;14.50;61.20;;;;;;5076044;28;20036;-78
2022/04/19 02:29:44;;;;;;;5.05;3.55;;;14.50;61.20;;;;;;5079567;28;20028;-79
2022/04/19 02:32:12;;;;;;;5.30;3.67;;;14.40;61.20;;;;;;5077305;28;20032;-78
2022/04/19 02:34:38;;;;;;;4.75;3.63;;;14.40;61.20;;;;;;5082167;28;20027;-78
2022/04/19 02:37:04;;;;;;;4.95;3.47;;;14.40;61.20;;;;;;5098382;28;20051;-79
2022/04/19 02:39:30;;;;;;;5.63;3.75;;;14.40;61.30;;;;;;5092338;28;20032;-78
2022/04/19 02:41:56;;;;;;;4.38;3.45;;;14.30;61.20;;;;;;5070007;28;20025;-79
2022/04/19 02:44:23;;;;;;;5.22;3.80;;;14.30;61.20;;;;;;5081568;28;20032;-78
2022/04/19 02:47:02;;;;;;;4.90;3.75;;;14.30;61.30;;;;;;5076717;28;20035;-78
2022/04/19 02:49:29;;;;;;;5.38;4.03;;;14.20;61.20;;;;;;5080859;28;20020;-78
2022/04/19 02:51:55;;;;;;;5.20;3.63;;;14.20;61.30;;;;;;5075029;28;20059;-78
2022/04/19 02:54:21;;;;;;;5.22;3.65;;;14.10;61.20;;;;;;5080170;28;20464;-78
2022/04/19 02:56:48;;;;;;;5.32;3.83;;;14.10;61.20;;;;;;5088413;28;20040;-78
2022/04/19 02:59:14;;;;;;;5.15;3.80;;;14.10;61.20;;;;;;5069933;28;20020;-78
2022/04/19 03:01:40;;;;;;;5.22;3.90;;;14.10;61.20;;;;;;5065581;28;20082;-78
2022/04/19 03:04:06;;;;;;;5.60;3.67;;;14.00;61.20;;;;;;5071956;28;20032;-78
2022/04/19 03:06:32;;;;;;;5.45;3.88;;;14.00;61.20;;;;;;5075237;28;20547;-78
2022/04/19 03:08:57;;;;;;;5.50;3.75;;;14.00;61.20;;;;;;5056160;28;20036;-77
2022/04/19 03:11:23;;;;;;;5.20;3.70;;;13.90;61.20;;;;;;5074365;28;20030;-77
2022/04/19 03:13:49;;;;;;;4.78;3.42;;;13.90;61.10;;;;;;5099191;28;20494;-78
2022/04/19 03:16:19;;;;;;;4.70;3.67;;;13.80;61.20;;;;;;5070886;28;20105;-78
2022/04/19 03:18:46;;;;;;;5.10;3.97;;;13.80;61.20;;;;;;5092711;28;20035;-78
2022/04/19 03:21:13;;;;;;;5.60;4.05;;;13.80;61.20;;;;;;5083282;28;20039;-78
2022/04/19 03:29:11;;;;;;;4.95;3.47;;;13.70;61.20;;;;;;5083277;28;20059;-78
2022/04/19 03:31:38;;;;;;;5.40;3.67;;;13.60;61.20;;;;;;5071746;28;20048;-78
2022/04/19 03:34:05;;;;;;;6.07;3.72;;;13.60;61.30;;;;;;5070590;28;20048;-78
2022/04/19 03:36:32;;;;;;;4.75;3.50;;;13.60;61.40;;;;;;5061360;28;20028;-78
2022/04/19 03:38:59;;;;;;;4.55;3.47;;;13.60;61.40;;;;;;5096212;28;20028;-78
2022/04/19 03:41:26;;;;;;;5.95;3.80;;;13.50;61.40;;;;;;5070698;28;20036;-78
2022/04/19 03:43:52;;;;;;;4.80;3.40;;;13.50;61.40;;;;;;5089466;28;20442;-77
2022/04/19 03:46:19;;;;;;;4.75;3.50;;;13.50;61.50;;;;;;5056435;28;20056;-77
2022/04/19 03:48:45;;;;;;;5.57;3.67;;;13.50;61.50;;;;;;5084553;28;20122;-79
2022/04/19 03:51:12;;;;;;;6.30;3.90;;;13.40;61.50;;;;;;5061205;28;20544;-78
2022/04/19 03:53:38;;;;;;;5.38;3.75;;;13.40;61.50;;;;;;5086637;28;20123;-78
2022/04/19 03:56:04;;;;;;;5.32;3.63;;;13.40;61.50;;;;;;5086296;28;20029;-79
2022/04/19 03:58:33;;;;;;;5.30;3.80;;;13.30;61.50;;;;;;5077669;28;20126;-77
2022/04/19 04:01:01;;;;;;;5.43;3.58;;;13.30;61.50;;;;;;5069520;28;20437;-77
2022/04/19 04:03:28;;;;;;;6.32;3.90;;;13.30;61.50;;;;;;5095077;28;20483;-78
2022/04/19 04:05:55;;;;;;;5.15;3.72;;;13.30;61.50;;;;;;5067766;28;20031;-77
2022/04/19 04:08:22;;;;;;;4.72;3.33;;;13.30;61.50;;;;;;5075415;28;20088;-77
2022/04/19 04:10:51;;;;;;;5.15;3.75;;;13.20;61.50;;;;;;5065348;28;20024;-79
2022/04/19 04:13:20;;;;;;;5.93;3.88;;;13.10;61.40;;;;;;5090199;28;20027;-78
2022/04/19 04:15:46;;;;;;;6.07;3.78;;;13.20;61.50;;;;;;5069581;28;20366;-78
2022/04/19 04:18:11;;;;;;;5.50;3.70;;;13.10;61.40;;;;;;5058812;28;20092;-78
2022/04/19 04:20:37;;;;;;;4.80;3.33;;;13.10;61.40;;;;;;5075091;28;20036;-78
2022/04/19 04:23:03;;;;;;;5.60;3.78;;;13.10;61.40;;;;;;5068286;28;20033;-75
2022/04/19 04:25:29;;;;;;;5.30;3.92;;;13.10;61.40;;;;;;5081570;28;20107;-78
2022/04/19 04:27:55;;;;;;;5.35;3.80;;;13.00;61.40;;;;;;5087749;28;20202;-78
2022/04/19 04:30:25;;;;;;;4.72;3.25;;;13.00;61.40;;;;;;5072312;28;20039;-78
2022/04/19 04:32:57;;;;;;;5.18;3.78;;;13.00;61.40;;;;;;5086035;28;20093;-78
2022/04/19 04:35:23;;;;;;;4.40;3.25;;;13.00;61.40;;;;;;5092247;28;20107;-77
2022/04/19 04:37:49;;;;;;;5.88;3.75;;;12.90;61.40;;;;;;5103578;28;20396;-78
2022/04/19 04:40:16;;;;;;;5.55;4.13;;;12.90;61.40;;;;;;5091522;28;20051;-79
2022/04/19 04:43:11;;;;;;;4.85;3.63;;;12.90;61.50;;;;;;5069779;28;20465;-79
2022/04/19 04:45:36;;;;;;;5.38;3.67;;;12.90;61.40;;;;;;5090708;28;20039;-80
2022/04/19 04:50:47;;;;;;;5.32;3.63;;;12.80;61.50;;;;;;5088225;28;20032;-79
2022/04/19 04:53:13;;;;;;;5.32;3.67;;;12.80;61.50;;;;;;5097481;28;20028;-79
2022/04/19 04:55:45;;;;;;;5.25;3.50;;;12.80;61.60;;;;;;5088785;28;20078;-79
2022/04/19 04:58:20;;;;;;;;;;;12.70;61.60;;;;;;5069499;28;20137;-78
2022/04/19 05:00:46;;;;;;;4.97;3.25;;;12.70;61.60;;;;;;5093561;28;19958;-80
2022/04/19 05:03:12;;;;;;;5.47;3.45;;;12.70;61.50;;;;;;5063560;28;20129;-82
2022/04/19 05:05:38;;;;;;;5.45;3.42;;;12.60;61.60;;;;;;5073344;28;20035;-79
2022/04/19 05:08:06;;;;;;;6.07;4.00;;;12.60;61.70;;;;;;5084858;28;20034;-78
2022/04/19 05:10:33;;;;;;;5.00;3.45;;;12.60;61.70;;;;;;5072956;28;20028;-79
2022/04/19 05:13:03;;;;;;;5.50;3.60;;;12.60;61.70;;;;;;5070210;28;20036;-78
2022/04/19 05:15:29;;;;;;;5.05;3.60;;;12.50;61.60;;;;;;5059986;28;20388;-78
2022/04/19 05:17:55;;;;;;;5.30;3.47;;;12.60;61.70;;;;;;5068752;28;20508;-78
2022/04/19 05:20:21;;;;;;;5.10;3.72;;;12.50;61.70;;;;;;5087858;28;20024;-79
2022/04/19 05:22:47;;;;;;;6.10;4.30;;;12.50;61.70;;;;;;5095897;28;20031;-78
2022/04/19 05:25:13;;;;;;;5.55;3.60;;;12.50;61.70;;;;;;5089022;28;20115;-79
2022/04/19 05:27:38;;;;;;;6.07;3.90;;;12.50;61.70;;;;;;5080826;28;20047;-79
2022/04/19 05:30:05;;;;;;;6.25;4.18;;;12.50;61.70;;;;;;5077527;28;20135;-78
2022/04/19 05:32:31;;;;;;;4.68;3.22;;;12.50;61.70;;;;;;5074834;28;20031;-79
2022/04/19 05:34:57;;;;;;;5.35;3.78;;;12.50;61.70;;;;;;5095690;28;20683;-78
2022/04/19 05:37:23;;;;;;;5.38;3.88;;;12.40;61.70;;;;;;5083254;28;20575;-78
2022/04/19 05:39:50;;;;;;;5.40;3.67;;;12.40;61.70;;;;;;5080756;28;20096;-78
2022/04/19 05:42:16;;;;;;;5.53;3.80;;;12.50;61.70;;;;;;5086043;28;20472;-78
2022/04/19 05:44:43;;;;;;;7.00;4.57;;;12.50;61.80;;;;;;5083701;28;20028;-78
2022/04/19 05:47:10;;;;;;;5.32;3.67;;;12.50;61.80;;;;;;5079185;28;20361;-77
2022/04/19 05:49:36;;;;;;;5.15;3.92;;;12.40;62.40;;;;;;5101671;28;20028;-78
2022/04/19 05:52:02;;;;;;;5.95;4.00;;;12.50;61.90;;;;;;5080643;28;20083;-78
2022/04/19 05:54:28;;;;;;;5.32;3.88;;;12.40;61.90;;;;;;5082961;28;20133;-78
2022/04/19 05:56:56;;;;;;;5.22;3.42;;;12.40;61.90;;;;;;5080289;28;20365;-77
2022/04/19 05:59:22;;;;;;;4.82;3.55;;;12.50;62.00;;;;;;5101176;28;20020;-78
2022/04/19 06:07:16;;;;;;;5.30;3.77;;;12.40;61.90;;;;;;5091803;28;20480;-78
2022/04/19 06:09:43;;;;;;;5.35;3.63;;;12.40;61.90;;;;;;5070884;28;20024;-78
2022/04/19 06:12:09;;;;;;;5.10;3.50;;;12.50;61.90;;;;;;5076230;28;20108;-77
2022/04/19 06:14:39;;;;;;;6.28;4.15;;;12.50;62.00;;;;;;5063386;28;20052;-78
2022/04/19 06:17:05;;;;;;;5.25;3.78;;;12.40;61.90;;;;;;5080481;28;20070;-77
2022/04/19 06:19:31;;;;;;;5.47;3.35;;;12.40;61.90;;;;;;5065259;28;20051;-76
2022/04/19 06:21:58;;;;;;;5.13;3.55;;;12.40;61.90;;;;;;5070966;28;20062;-77
2022/04/19 06:24:24;;;;;;;5.72;3.90;;;12.40;61.90;;;;;;5102678;28;20388;-77
2022/04/19 06:26:50;;;;;;;5.65;3.92;;;12.50;62.00;;;;;;5095550;28;20012;-77
2022/04/19 06:29:19;;;;;;;6.13;3.85;;;12.50;62.00;;;;;;5081315;28;20107;-78
2022/04/19 06:31:58;;;;;;;5.45;3.90;;;12.50;62.00;;;;;;5087411;28;20024;-77
2022/04/19 06:34:38;;;;;;;5.55;3.83;;;12.50;62.00;;;;;;5080484;28;20034;-77
2022/04/19 06:37:09;;;;;;;6.03;3.65;;;12.50;62.00;;;;;;5074127;28;20040;-77
2022/04/19 06:39:38;;;;;;;6.25;4.35;;;12.50;62.00;;;;;;5083077;28;20024;-79
2022/04/19 06:42:04;;;;;;;5.40;4.15;;;12.50;62.00;;;;;;5060537;28;20073;-78
2022/04/19 06:44:50;;;;;;;5.75;4.05;;;12.60;62.10;;;;;;5081929;28;20082;-76
2022/04/19 06:47:21;;;;;;;5.18;3.67;;;12.50;62.00;;;;;;5073219;28;20470;-77
2022/04/19 06:49:47;;;;;;;5.78;4.13;;;12.50;62.00;;;;;;5090578;28;20027;-77
2022/04/19 06:52:12;;;;;;;5.97;4.00;;;12.60;62.10;;;;;;5073248;28;20028;-77
2022/04/19 06:54:38;;;;;;;5.38;3.83;;;12.60;62.10;;;;;;5066623;28;20499;-77
2022/04/19 06:57:04;;;;;;;5.65;3.85;;;12.60;62.10;;;;;;5067585;28;20039;-77
2022/04/19 06:59:30;;;;;;;6.18;4.25;;;12.60;62.10;;;;;;5068726;28;20032;-77
2022/04/19 07:01:56;;;;;;;5.95;3.97;;;12.60;62.10;;;;;;5040097;28;20031;-77
2022/04/19 07:04:33;;;;;;;6.13;4.25;;;12.70;62.20;;;;;;5099316;28;20059;-77
2022/04/19 07:07:03;;;;;;;5.90;3.90;;;12.70;62.20;;;;;;5101230;28;20488;-78
2022/04/19 07:09:30;;;;;;;6.13;4.05;;;12.70;62.20;;;;;;5045761;28;20081;-77
2022/04/19 07:11:58;;;;;;;7.20;4.70;;;12.70;62.10;;;;;;5074458;28;20455;-77
2022/04/19 07:14:27;;;;;;;6.40;4.45;;;12.70;62.10;;;;;;5082716;28;20050;-77
2022/04/19 07:16:59;;;;;;;5.80;3.92;;;12.80;62.20;;;;;;5079902;28;20048;-77
2022/04/19 07:27:59;;;;;;;6.30;4.28;;;12.80;62.10;;;;;;5087835;28;20082;-77
2022/04/19 07:30:25;;;;;;;5.82;3.70;;;12.90;62.20;;;;;;5085502;28;20106;-77
2022/04/19 07:32:52;;;;;;;6.50;4.50;;;12.80;62.20;;;;;;5069160;28;20473;-78
2022/04/19 07:35:23;;;;;;;6.05;4.45;;;12.90;62.30;;;;;;5098397;28;20150;-77
2022/04/19 07:37:49;;;;;;;6.40;4.43;;;12.90;62.30;;;;;;5073840;28;20047;-77
2022/04/19 07:40:15;;;;;;;5.97;4.35;;;12.90;62.30;;;;;;5080988;28;20056;-77
2022/04/19 07:42:41;;;;;;;6.93;4.78;;;13.00;62.30;;;;;;5080807;28;20059;-77
2022/04/19 07:45:07;;;;;;;6.03;4.10;;;13.00;62.30;;;;;;5073899;28;20048;-78
2022/04/19 07:47:34;;;;;;;5.68;4.00;;;13.00;62.30;;;;;;5091851;28;20032;-77
2022/04/19 07:50:01;;;;;;;6.80;4.22;;;13.10;62.30;;;;;;5057560;28;20040;-78
2022/04/19 07:52:28;;;;;;;5.85;4.13;;;13.10;62.30;;;;;;5083266;28;20464;-77
2022/04/19 07:54:54;;;;;;;7.07;4.80;;;13.10;62.30;;;;;;5081445;28;20073;-77
2022/04/19 07:57:22;;;;;;;6.20;3.95;;;13.10;62.30;;;;;;5068701;28;20504;-77
2022/04/19 07:59:54;;;;;;;7.10;4.70;;;13.10;62.30;;;;;;5078808;28;20035;-77
2022/04/19 08:02:22;;;;;;;6.45;4.43;;;13.20;62.30;;;;;;5091003;28;20071;-78
2022/04/19 08:04:47;;;;;;;5.82;4.00;;;13.20;62.30;;;;;;5070480;28;20119;-77
2022/04/19 08:07:13;;;;;;;6.50;4.63;;;13.30;62.40;;;;;;5076774;28;20114;-77
2022/04/19 08:09:39;;;;;;;6.47;4.50;;;13.30;62.40;;;;;;5083934;28;20060;-77
2022/04/19 08:12:06;;;;;;;6.72;4.53;;;13.30;62.40;;;;;;5097581;28;20384;-77
2022/04/19 08:14:32;;;;;;;6.05;4.30;;;13.30;62.40;;;;;;5098647;28;20043;-77
2022/04/19 08:16:58;;;;;;;6.18;4.10;;;13.40;62.40;;;;;;5045867;28;20090;-77
2022/04/19 08:19:24;;;;;;;5.93;3.92;;;13.40;62.40;;;;;;5066629;28;20031;-77
2022/04/19 08:21:51;;;;;;;7.03;4.72;;;13.40;62.50;;;;;;5100548;28;20689;-76
2022/04/19 08:24:18;;;;;;;5.80;4.10;;;13.50;62.40;;;;;;5064061;28;20115;-78
2022/04/19 08:26:45;;;;;;;5.95;3.97;;;13.50;62.40;;;;;;5097218;28;20306;-77
2022/04/19 08:29:11;;;;;;;6.13;4.22;;;13.60;62.40;;;;;;5071718;28;20032;-78
2022/04/19 08:31:37;;;;;;;6.50;4.05;;;13.60;62.30;;;;;;5083889;28;20032;-78
2022/04/19 08:34:03;;;;;;;6.35;3.63;;;13.70;62.40;;;;;;5076213;28;20088;-77
2022/04/19 08:36:29;;;;;;;6.10;3.97;;;13.70;62.30;;;;;;5080818;28;20027;-77
2022/04/19 08:38:55;;;;;;;5.85;3.78;;;13.80;62.40;;;;;;5064360;28;20421;-78
2022/04/19 08:41:22;;;;;;;6.80;4.03;;;13.80;62.40;;;;;;5066147;28;20052;-77
2022/04/19 08:43:52;;;;;;;5.18;3.47;;;13.90;62.40;;;;;;5070129;28;20024;-78
2022/04/19 08:46:19;;;;;;;6.10;3.97;;;14.00;62.50;;;;;;5080548;28;20036;-78
2022/04/19 08:48:44;;;;;;;5.82;4.05;;;14.00;62.40;;;;;;5080991;28;20021;-76
2022/04/19 08:51:12;;;;;;;5.45;3.78;;;14.10;62.40;;;;;;5100220;28;20032;-77
2022/04/19 08:59:07;;;;;;;5.18;3.53;;;14.30;62.40;;;;;;5083061;28;20032;-77
2022/04/19 09:01:35;;;;;;;5.32;3.42;;;14.40;62.40;;;;;;5084417;28;20380;-77
2022/04/19 09:04:04;;;;;;;6.05;3.83;;;14.50;62.40;;;;;;5101103;28;20034;-77
2022/04/19 09:06:53;;;;;;;6.47;4.10;;;14.50;62.40;;;;;;5084776;28;20028;-77
2022/04/19 09:09:24;;;;;;;6.13;3.65;;;14.60;62.40;;;;;;5096900;28;20123;-77
2022/04/19 09:11:51;;;;;;;6.38;3.75;;;14.70;62.30;;;;;;5081461;28;20189;-77
2022/04/19 09:14:17;;;;;;;5.47;3.95;;;14.80;62.30;;;;;;5082021;28;20023;-77
2022/04/19 09:16:45;;;;;;;4.93;3.13;;;14.90;62.20;;;;;;5101895;28;20039;-78
2022/04/19 09:19:25;;;;;;;5.13;3.40;;;15.00;62.20;;;;;;5092336;28;20119;-77
2022/04/19 09:21:51;;;;;;;5.50;3.67;;;15.00;62.20;;;;;;5089673;28;20079;-78
2022/04/19 09:24:21;;;;;;;5.55;3.58;;;15.10;62.10;;;;;;5073248;28;20454;-77
2022/04/19 09:26:48;;;;;;;7.20;3.83;;;15.20;62.10;;;;;;5083957;28;20100;-77
2022/04/19 09:29:27;;;;;;;5.35;3.47;;;15.30;62.10;;;;;;5075652;28;20020;-77
2022/04/19 09:31:58;;;;;;;5.28;3.25;;;15.40;62.10;;;;;;5102488;28;20046;-77
2022/04/19 09:34:34;;;;;;;5.55;3.20;;;15.50;62.00;;;;;;5100222;28;20059;-77
2022/04/19 09:37:06;;;;;;;5.57;3.10;;;15.60;62.00;;;;;;5083574;28;20473;-78
2022/04/19 09:39:34;;;;;;;4.70;2.75;;;15.70;61.90;;;;;;5102225;28;20091;-76
2022/04/19 09:42:05;;;;;;;4.80;3.13;;;15.80;61.80;;;;;;5100439;28;20027;-78
2022/04/19 09:44:36;;;;;;;5.68;3.50;;;15.90;61.90;;;;;;5095706;28;20032;-77
2022/04/19 09:47:09;;;;;;;5.03;3.10;;;16.00;61.80;;;;;;5098384;28;20478;-77
2022/04/19 09:49:48;;;;;;;4.05;2.63;;;16.10;61.80;;;;;;5091619;28;20055;-76
2022/04/19 09:52:36;;;;;;;4.32;2.90;;;16.20;61.80;;;;;;5075051;28;20024;-77
2022/04/19 09:55:07;;;;;;;4.63;2.95;;;16.30;61.70;;;;;;5092478;28;20032;-76
2022/04/19 09:57:37;;;;;;;5.72;3.47;;;16.40;61.60;;;;;;5099531;28;20173;-76
2022/04/19 10:00:06;;;;;;;5.43;3.30;;;16.50;61.50;;;;;;5089207;28;20509;-76
2022/04/19 10:08:20;;;;;;;3.58;2.38;;;16.80;61.30;;;;;;5096331;28;20057;-76
2022/04/19 10:10:56;;;;;;;4.32;2.78;;;16.90;61.30;;;;;;5099932;28;20149;-79
2022/04/19 10:13:25;;;;;;;4.38;3.08;;;17.00;61.40;;;;;;5089155;28;20404;-78
2022/04/19 10:15:51;;;;;;;4.47;3.10;;;17.10;61.40;;;;;;5082498;28;20532;-77
2022/04/19 10:18:17;;;;;;;3.95;2.60;;;17.20;61.40;;;;;;5091238;28;20039;-77
2022/04/19 10:20:51;;;;;;;3.88;2.70;;;17.30;61.20;;;;;;5099271;28;20032;-79
2022/04/19 10:23:17;;;;;;;4.60;2.73;;;17.40;61.20;;;;;;5084019;28;20085;-77
2022/04/19 10:25:46;;;;;;;4.03;2.53;;;17.50;61.20;;;;;;5074629;28;20028;-77
2022/04/19 10:28:14;;;;;;;4.47;2.60;;;17.60;61.20;;;;;;5092350;28;20020;-77
2022/04/19 10:30:52;;;;;;;3.95;2.53;;;17.70;61.10;;;;;;5088894;28;20119;-77
2022/04/19 10:33:50;;;;;;;3.45;2.42;;;17.90;61.10;;;;;;5099288;28;20652;-77
2022/04/19 10:36:17;;;;;;;3.95;2.47;;;17.90;61.10;;;;;;5073888;28;20047;-77
2022/04/19 10:38:44;;;;;;;4.70;2.83;;;18.10;61.10;;;;;;5099792;28;20024;-77
2022/04/19 10:41:10;;;;;;;4.00;2.60;;;18.20;61.10;;;;;;5074815;28;20484;-77
2022/04/19 10:43:36;;;;;;;4.00;2.58;;;18.20;61.10;;;;;;5098132;28;20086;-77
2022/04/19 10:46:18;;;;;;;4.00;2.42;;;18.30;61.00;;;;;;5087337;28;20031;-76
2022/04/19 10:49:22;;;;;;;3.53;2.35;;;18.40;61.10;;;;;;5073647;28;20024;-77
2022/04/19 10:51:48;;;;;;;3.42;2.35;;;18.60;61.10;;;;;;5077440;28;20081;-78
2022/04/19 10:54:14;;;;;;;3.80;2.55;;;18.70;61.00;;;;;;5076601;28;20094;-77
2022/04/19 10:59:59;;;;;;;3.67;2.17;;;18.80;60.90;;;;;;5113053;27;20468;-79
2022/04/19 11:02:35;;;;;;;4.00;2.38;;;19.00;60.80;;;;;;5102590;28;20095;-78
2022/04/19 11:05:03;;;;;;;3.90;2.60;;;19.10;60.80;;;;;;5056938;28;20495;-77
2022/04/19 11:07:47;;;;;;;3.92;2.58;;;19.10;60.70;;;;;;5078686;28;20060;-79
2022/04/19 11:10:12;;;;;;;3.90;2.50;;;19.20;60.70;;;;;;5083775;28;20039;-77
2022/04/19 11:12:58;;;;;;;3.67;2.25;;;19.40;60.70;;;;;;5099978;28;20020;-78
2022/04/19 11:15:37;;;;;;;3.75;2.60;;;19.40;60.60;;;;;;5087978;28;20091;-77
2022/04/19 11:18:22;;;;;;;3.60;2.13;;;19.50;60.40;;;;;;5066659;28;20047;-79
2022/04/19 11:20:49;;;;;;;4.03;2.58;;;19.60;60.50;;;;;;5083463;28;20032;-77
2022/04/19 11:23:20;;;;;;;4.47;2.67;;;19.70;61.10;;;;;;5063570;28;20508;-78
2022/04/19 11:25:47;;;;;;;3.97;2.25;;;19.80;60.60;;;;;;5100200;28;20027;-77
2022/04/19 11:28:19;;;;;;;3.58;2.15;;;19.90;60.70;;;;;;5094665;28;20020;-78
2022/04/19 11:31:05;;;;;;;3.85;2.50;;;19.90;60.60;;;;;;5096295;28;20058;-78
2022/04/19 11:33:33;;;;;;;4.25;2.60;;;20.00;60.80;;;;;;5093187;28;20028;-77
2022/04/19 11:36:18;;;;;;;3.45;2.28;;;20.10;60.60;;;;;;5081159;28;20025;-77
2022/04/19 11:38:48;;;;;;;4.07;1.90;;;20.20;60.80;;;;;;5097859;28;20039;-78
2022/04/19 11:47:02;;;;;;;2.55;1.80;;;20.40;60.70;;;;;;5084949;28;20036;-78
2022/04/19 11:49:38;;;;;;;3.85;2.30;;;20.50;60.80;;;;;;5063803;28;20110;-78
2022/04/19 11:52:13;;;;;;;4.00;2.30;;;20.60;61.00;;;;;;5080467;28;20036;-78
2022/04/19 11:54:39;;;;;;;3.63;2.35;;;20.60;61.00;;;;;;5078969;28;20021;-79
2022/04/19 11:57:07;;;;;;;3.22;2.05;;;20.70;60.90;;;;;;5093371;28;20036;-78
2022/04/19 11:59:39;;;;;;;3.65;2.20;;;20.80;61.00;;;;;;5075006;28;20016;-79
2022/04/19 12:02:17;;;;;;;3.38;2.33;;;20.90;61.10;;;;;;5086177;28;20027;-77
2022/04/19 12:04:56;;;;;;;3.42;2.17;;;20.90;61.10;;;;;;5106105;28;20023;-79
2022/04/19 12:07:25;;;;;;;3.72;2.33;;;21.00;61.20;;;;;;5099526;28;20032;-78
2022/04/19 12:09:52;;;;;;;4.55;2.47;;;21.00;61.00;;;;;;5079124;28;20475;-79
2022/04/19 12:12:19;;;;;;;4.30;2.58;;;21.10;61.10;;;;;;5100027;28;20031;-78
2022/04/19 12:14:52;;;;;;;4.47;2.25;;;21.10;61.10;;;;;;5087652;28;20032;-77
2022/04/19 12:17:22;;;;;;;4.40;2.60;;;21.20;61.20;;;;;;5080254;28;20052;-78
2022/04/19 12:19:59;;;;;;;3.78;2.58;;;21.20;61.20;;;;;;5076589;28;20123;-78
2022/04/19 12:22:24;;;;;;;3.70;2.20;;;21.30;61.30;;;;;;5080875;28;20029;-77
2022/04/19 12:24:54;;;;;;;3.90;2.40;;;21.30;61.20;;;;;;5086681;28;20051;-78
2022/04/19 12:27:29;;;;;;;4.45;2.40;;;21.40;61.20;;;;;;5088135;28;20032;-80
2022/04/19 12:30:02;;;;;;;3.17;2.13;;;21.40;61.20;;;;;;5077298;28;20461;-77
2022/04/19 12:32:51;;;;;;;4.00;2.40;;;21.50;61.30;;;;;;5099085;28;20059;-78
2022/04/19 12:35:17;;;;;;;3.10;2.03;;;21.50;61.20;;;;;;5092022;28;20485;-80
2022/04/19 12:37:43;;;;;;;3.92;2.28;;;21.60;61.20;;;;;;5088903;28;20028;-78
2022/04/19 12:40:10;;;;;;;3.25;2.22;;;21.60;61.30;;;;;;5084518;28;20051;-78
2022/04/19 12:42:50;;;;;;;3.65;2.30;;;21.60;61.90;;;;;;5077542;28;20029;-78
2022/04/19 12:45:17;;;;;;;2.95;1.92;;;21.70;61.20;;;;;;5073993;28;20112;-77
2022/04/19 12:47:50;;;;;;;3.70;2.28;;;21.70;61.10;;;;;;5084148;28;20028;-80
2022/04/19 12:50:19;;;;;;;3.13;1.92;;;21.80;61.00;;;;;;5081778;28;20024;-78
2022/04/19 12:52:45;;;;;;;3.53;2.10;;;21.80;61.00;;;;;;5101159;28;20506;-78
2022/04/19 12:55:11;;;;;;;3.88;2.10;;;21.80;61.00;;;;;;5102746;28;20035;-79
2022/04/19 12:57:40;;;;;;;3.13;1.95;;;21.90;61.00;;;;;;5096253;28;20547;-78
2022/04/19 13:00:09;;;;;;;2.70;1.98;;;21.90;61.00;;;;;;5096623;28;20105;-78
2022/04/19 13:02:40;;;;;;;3.10;2.10;;;21.90;61.00;;;;;;5092374;28;20027;-78
2022/04/19 13:05:06;;;;;;;3.63;2.45;;;22.00;60.90;;;;;;5101430;28;20047;-78
2022/04/19 13:13:04;;;;;;;3.90;2.13;;;22.10;60.80;;;;;;5098773;28;20043;-78
2022/04/19 13:15:32;;;;;;;3.00;2.00;;;22.10;60.80;;;;;;5107431;28;20710;-78
2022/04/19 13:17:58;;;;;;;3.25;2.00;;;22.10;60.90;;;;;;5094478;28;20051;-79
2022/04/19 13:20:24;;;;;;;4.22;2.15;;;22.20;60.90;;;;;;5055064;28;20043;-78
2022/04/19 13:22:49;;;;;;;2.42;1.80;;;22.20;60.90;;;;;;5094718;28;20379;-78
2022/04/19 13:25:16;;;;;;;2.30;1.70;;;22.30;60.90;;;;;;5064784;28;20020;-78
2022/04/19 13:27:42;;;;;;;3.05;1.83;;;22.20;60.80;;;;;;5075560;28;20772;-80
2022/04/19 13:30:13;;;;;;;2.50;1.90;;;22.20;60.80;;;;;;5100359;28;20065;-77
2022/04/19 13:32:39;;;;;;;2.10;1.70;;;22.30;60.80;;;;;;5072375;28;20477;-79
2022/04/19 13:35:06;;;;;;;2.92;2.00;;;22.30;60.80;;;;;;5094040;28;20491;-78
2022/04/19 13:40:17;;;;;;;2.83;2.03;;;22.30;60.50;;;;;;5077185;28;20105;-78
2022/04/19 13:42:43;;;;;;;2.92;2.05;;;22.30;60.60;;;;;;5077198;28;20096;-77
2022/04/19 13:45:09;;;;;;;3.03;2.03;;;22.30;60.70;;;;;;5079314;28;20036;-78
2022/04/19 13:47:35;;;;;;;3.10;1.98;;;22.40;60.80;;;;;;5084285;28;20035;-79
2022/04/19 13:50:01;;;;;;;2.83;2.08;;;22.40;60.90;;;;;;5079673;28;20103;-79
2022/04/19 13:52:27;;;;;;;2.63;1.60;;;22.40;60.90;;;;;;5075652;28;20031;-78